createdAt,value
2023-01-03T00:01:50.305Z,94409.28
2023-01-03T00:04:18.746Z,94409.38
2023-01-03T00:06:51.505Z,94409.06
2023-01-03T00:09:21.967Z,94405.34
2023-01-03T00:12:09.546Z,94404.56
2023-01-03T00:14:40.300Z,94407.84
2023-01-03T00:17:09.272Z,94415.91
2023-01-03T00:19:42.968Z,94408.94
2023-01-03T00:22:12.147Z,94406.03
2023-01-03T00:24:40.285Z,94414.03
2023-01-03T00:27:08.498Z,94409.16
2023-01-03T00:29:36.856Z,94408.94
2023-01-03T00:32:04.886Z,94409.28
2023-01-03T00:34:32.157Z,94411.78
2023-01-03T00:36:59.994Z,94410.31
2023-01-03T00:39:27.943Z,94411.00
2023-01-03T00:41:55.272Z,94412.06
2023-01-03T00:44:22.653Z,94409.78
2023-01-03T00:46:50.205Z,94411.50
2023-01-03T00:49:17.710Z,94413.22
2023-01-03T00:51:45.586Z,94409.09
2023-01-03T00:54:14.581Z,94402.62
2023-01-03T00:56:44.242Z,94406.44
2023-01-03T00:59:12.884Z,94404.63
2023-01-03T01:01:48.467Z,94397.84
2023-01-03T01:04:22.560Z,94401.63
2023-01-03T01:06:56.301Z,94398.28
2023-01-03T01:09:29.287Z,94394.47
2023-01-03T01:11:57.064Z,94400.53
2023-01-03T01:14:27.552Z,94402.66
2023-01-03T01:17:02.213Z,94390.47
2023-01-03T01:19:36.292Z,94390.97
2023-01-03T01:22:04.091Z,94393.91
2023-01-03T01:24:31.705Z,94389.34
2023-01-03T01:26:59.713Z,94390.47
2023-01-03T01:29:26.942Z,94392.25
2023-01-03T01:31:54.678Z,94396.09
2023-01-03T01:34:22.178Z,94389.59
2023-01-03T01:36:49.697Z,94386.31
2023-01-03T01:39:20.562Z,94385.88
2023-01-03T01:42:08.383Z,94379.12
2023-01-03T01:44:54.198Z,94387.62
2023-01-03T01:47:40.321Z,94384.78
2023-01-03T01:50:31.910Z,94375.75
2023-01-03T01:53:10.928Z,94384.63
2023-01-03T01:55:43.829Z,94383.03
2023-01-03T01:58:12.893Z,94379.19
2023-01-03T02:00:41.423Z,94384.75
2023-01-03T02:03:09.890Z,94380.56
2023-01-03T02:05:42.059Z,94382.16
2023-01-03T02:08:09.231Z,94386.00
2023-01-03T02:10:42.449Z,94381.50
2023-01-03T02:13:18.928Z,94384.31
2023-01-03T02:16:13.198Z,94379.44
2023-01-03T02:18:47.714Z,94377.31
2023-01-03T02:21:50.411Z,94374.06
2023-01-03T02:24:27.016Z,94376.34
2023-01-03T02:27:10.037Z,94369.13
2023-01-03T02:30:09.793Z,94370.25
2023-01-03T02:32:45.259Z,94369.81
2023-01-03T02:35:25.094Z,94368.63
2023-01-03T02:37:58.463Z,94371.72
2023-01-03T02:40:37.786Z,94364.22
2023-01-03T02:43:16.620Z,94360.03
2023-01-03T02:46:10.876Z,94374.22
2023-01-03T02:48:46.695Z,94365.91
2023-01-03T02:51:40.195Z,94358.06
2023-01-03T02:54:10.859Z,94371.72
2023-01-03T02:56:51.565Z,94367.53
2023-01-03T02:59:37.034Z,94369.91
2023-01-03T03:02:05.729Z,94362.75
2023-01-03T03:04:36.500Z,94364.31
2023-01-03T03:07:17.871Z,94364.31
2023-01-03T03:10:04.459Z,94359.91
2023-01-03T03:12:52.244Z,94354.44
2023-01-03T03:15:24.169Z,94365.22
2023-01-03T03:17:58.092Z,94363.63
2023-01-03T03:20:44.262Z,94361.28
2023-01-03T03:23:34.787Z,94367.41
2023-01-03T03:26:10.139Z,94359.69
2023-01-03T03:28:39.689Z,94360.06
2023-01-03T03:31:25.156Z,94350.75
2023-01-03T03:33:56.581Z,94355.56
2023-01-03T03:36:26.929Z,94353.66
2023-01-03T03:38:54.522Z,94357.03
2023-01-03T03:42:09.503Z,94355.50
2023-01-03T03:45:02.196Z,94356.81
2023-01-03T03:47:34.252Z,94356.38
2023-01-03T03:50:07.785Z,94363.06
2023-01-03T03:52:36.733Z,94355.56
2023-01-03T03:55:12.119Z,94359.69
2023-01-03T03:57:53.145Z,94362.78
2023-01-03T04:00:24.714Z,94354.81
2023-01-03T04:02:55.864Z,94366.44
2023-01-03T04:05:27.965Z,94363.81
2023-01-03T04:07:55.706Z,94360.47
2023-01-03T04:10:23.935Z,94361.69
2023-01-03T04:12:52.570Z,94357.12
2023-01-03T04:15:20.432Z,94363.53
2023-01-03T04:17:47.800Z,94365.41
2023-01-03T04:20:15.660Z,94368.41
2023-01-03T04:22:43.919Z,94364.00
2023-01-03T04:25:11.625Z,94363.03
2023-01-03T04:27:39.007Z,94362.88
2023-01-03T04:30:11.638Z,94368.56
2023-01-03T04:32:39.386Z,94365.94
2023-01-03T04:35:07.411Z,94360.41
2023-01-03T04:37:35.588Z,94364.25
2023-01-03T04:40:04.119Z,94368.09
2023-01-03T04:42:50.317Z,94369.44
2023-01-03T04:45:18.226Z,94378.44
2023-01-03T04:47:46.396Z,94375.13
2023-01-03T04:50:14.038Z,94376.53
2023-01-03T04:52:41.915Z,94373.59
2023-01-03T04:55:10.320Z,94377.13
2023-01-03T04:57:37.799Z,94381.16
2023-01-03T05:00:06.522Z,94385.72
2023-01-03T05:02:34.206Z,94377.25
2023-01-03T05:05:01.530Z,94386.31
2023-01-03T05:07:29.308Z,94382.16
2023-01-03T05:09:57.055Z,94382.91
2023-01-03T05:12:24.407Z,94390.31
2023-01-03T05:14:52.613Z,94386.56
2023-01-03T05:17:22.964Z,94377.97
2023-01-03T05:20:09.783Z,94387.44
2023-01-03T05:22:56.533Z,94393.09
2023-01-03T05:25:43.224Z,94396.50
2023-01-03T05:28:17.063Z,94400.28
2023-01-03T05:30:45.032Z,94407.13
2023-01-03T05:33:14.097Z,94401.38
2023-01-03T05:35:41.916Z,94405.13
2023-01-03T05:38:09.234Z,94404.34
2023-01-03T05:40:41.203Z,94400.75
2023-01-03T05:43:09.020Z,94407.22
2023-01-03T05:45:38.194Z,94413.28
2023-01-03T05:48:06.935Z,94411.06
2023-01-03T05:50:34.826Z,94412.16
2023-01-03T05:53:03.951Z,94411.53
2023-01-03T05:55:31.367Z,94408.78
2023-01-03T05:57:58.895Z,94403.25
2023-01-03T06:00:26.469Z,94406.59
2023-01-03T06:02:54.339Z,94411.16
2023-01-03T06:05:21.809Z,94408.00
2023-01-03T06:07:49.610Z,94414.78
2023-01-03T06:10:17.306Z,94417.78
2023-01-03T06:12:44.693Z,94421.63
2023-01-03T06:15:12.033Z,94415.31
2023-01-03T06:18:00.275Z,94417.13
2023-01-03T06:20:28.049Z,94421.34
2023-01-03T06:22:55.901Z,94422.59
2023-01-03T06:25:23.250Z,94428.53
2023-01-03T06:27:50.634Z,94428.31
2023-01-03T06:30:18.525Z,94430.59
2023-01-03T06:32:48.666Z,94432.84
2023-01-03T06:35:15.941Z,94427.84
2023-01-03T06:37:43.857Z,94424.56
2023-01-03T06:40:11.517Z,94424.97
2023-01-03T06:42:45.137Z,94424.50
2023-01-03T06:45:33.337Z,94425.38
2023-01-03T06:48:26.683Z,94423.38
2023-01-03T06:51:13.422Z,94425.66
2023-01-03T06:53:43.360Z,94431.78
2023-01-03T06:56:10.887Z,94423.19
2023-01-03T06:58:39.513Z,94422.59
2023-01-03T07:01:07.088Z,94418.69
2023-01-03T07:03:35.083Z,94416.03
2023-01-03T07:06:03.193Z,94422.84
2023-01-03T07:08:30.529Z,94421.09
2023-01-03T07:10:59.071Z,94428.00
2023-01-03T07:13:45.237Z,94429.03
2023-01-03T07:16:18.229Z,94430.31
2023-01-03T07:18:54.440Z,94429.19
2023-01-03T07:21:27.725Z,94428.25
2023-01-03T07:24:02.544Z,94427.16
2023-01-03T07:26:32.358Z,94435.06
2023-01-03T07:29:00.151Z,94431.19
2023-01-03T07:31:27.779Z,94435.97
2023-01-03T07:33:55.684Z,94440.38
2023-01-03T07:36:23.072Z,94443.47
2023-01-03T07:38:50.375Z,94436.09
2023-01-03T07:41:21.037Z,94435.63
2023-01-03T07:43:49.654Z,94439.59
2023-01-03T07:46:18.417Z,94429.63
2023-01-03T07:48:48.652Z,94436.59
2023-01-03T07:51:19.002Z,94437.91
2023-01-03T07:53:50.019Z,94439.34
2023-01-03T07:56:22.098Z,94442.44
2023-01-03T07:58:52.188Z,94436.03
2023-01-03T08:01:24.569Z,94433.97
2023-01-03T08:03:53.675Z,94438.53
2023-01-03T08:06:24.208Z,94432.50
2023-01-03T08:09:12.139Z,94433.34
2023-01-03T08:11:58.486Z,94443.28
2023-01-03T08:14:27.392Z,94441.88
2023-01-03T08:16:56.051Z,94440.56
2023-01-03T08:19:25.358Z,94437.03
2023-01-03T08:21:53.171Z,94439.63
2023-01-03T08:24:20.681Z,94434.78
2023-01-03T08:26:48.597Z,94431.16
2023-01-03T08:29:16.419Z,94435.00
2023-01-03T08:31:54.707Z,94433.78
2023-01-03T08:34:29.430Z,94424.00
2023-01-03T08:37:03.756Z,94424.03
2023-01-03T08:39:39.431Z,94420.84
2023-01-03T08:42:08.962Z,94420.47
2023-01-03T08:44:37.559Z,94425.00
2023-01-03T08:47:08.866Z,94421.00
2023-01-03T08:49:37.511Z,94418.53
2023-01-03T08:52:05.293Z,94412.03
2023-01-03T08:54:32.888Z,94406.78
2023-01-03T08:57:00.442Z,94402.84
2023-01-03T08:59:27.774Z,94406.59
2023-01-03T09:01:59.402Z,94401.81
2023-01-03T09:04:27.158Z,94398.44
2023-01-03T09:06:54.400Z,94396.34
2023-01-03T09:09:21.633Z,94392.31
2023-01-03T09:11:49.932Z,94386.59
2023-01-03T09:14:17.472Z,94390.84
2023-01-03T09:16:48.927Z,94383.19
2023-01-03T09:19:17.728Z,94380.94
2023-01-03T09:21:45.114Z,94375.06
2023-01-03T09:24:12.584Z,94369.19
2023-01-03T09:26:41.913Z,94369.31
2023-01-03T09:29:09.321Z,94357.88
2023-01-03T09:31:39.935Z,94356.75
2023-01-03T09:34:08.279Z,94351.34
2023-01-03T09:36:38.667Z,94349.41
2023-01-03T09:39:07.448Z,94339.75
2023-01-03T09:41:39.591Z,94340.34
2023-01-03T09:44:09.273Z,94335.38
2023-01-03T09:46:37.913Z,94325.75
2023-01-03T09:49:07.489Z,94327.31
2023-01-03T09:51:57.500Z,94324.09
2023-01-03T09:54:46.471Z,94315.59
2023-01-03T09:57:53.836Z,94307.47
2023-01-03T10:00:51.554Z,94293.66
2023-01-03T10:03:50.500Z,94297.31
2023-01-03T10:06:43.977Z,94293.16
2023-01-03T10:09:43.129Z,94277.34
2023-01-03T10:12:29.273Z,94274.47
2023-01-03T10:15:03.073Z,94271.97
2023-01-03T10:17:48.879Z,94269.13
2023-01-03T10:20:27.817Z,94271.44
2023-01-03T10:22:58.565Z,94262.75
2023-01-03T10:25:29.328Z,94259.19
2023-01-03T10:28:04.655Z,94258.00
2023-01-03T10:30:35.181Z,94247.78
2023-01-03T10:33:29.670Z,94246.00
2023-01-03T10:35:57.519Z,94229.69
2023-01-03T10:38:26.039Z,94221.50
2023-01-03T10:41:01.721Z,94222.78
2023-01-03T10:43:44.198Z,94213.81
2023-01-03T10:46:17.792Z,94215.69
2023-01-03T10:51:50.847Z,94200.84
2023-01-03T10:54:18.629Z,94197.03
2023-01-03T10:56:47.826Z,94199.28
2023-01-03T10:59:26.165Z,94200.56
2023-01-03T11:02:16.940Z,94205.12
2023-01-03T11:04:44.922Z,94192.09
2023-01-03T11:07:17.163Z,94188.75
2023-01-03T11:09:51.191Z,94187.78
2023-01-03T11:12:30.490Z,94185.59
2023-01-03T11:14:58.476Z,94176.09
2023-01-03T11:17:27.086Z,94186.66
2023-01-03T11:19:55.711Z,94183.34
2023-01-03T11:22:49.237Z,94170.91
2023-01-03T11:25:30.572Z,94170.34
2023-01-03T11:28:03.975Z,94173.88
2023-01-03T11:30:51.046Z,94169.75
2023-01-03T11:33:37.012Z,94160.66
2023-01-03T11:36:15.837Z,94155.94
2023-01-03T11:39:16.986Z,94146.59
2023-01-03T11:41:56.210Z,94149.22
2023-01-03T11:44:48.395Z,94146.19
2023-01-03T11:47:42.624Z,94142.78
2023-01-03T11:50:28.770Z,94134.97
2023-01-03T11:53:02.296Z,94141.28
2023-01-03T11:56:05.331Z,94128.41
2023-01-03T11:58:45.438Z,94124.06
2023-01-03T12:01:47.277Z,94122.78
2023-01-03T12:04:48.105Z,94121.22
2023-01-03T12:10:22.882Z,94115.13
2023-01-03T12:12:59.465Z,94117.00
2023-01-03T12:15:49.781Z,94109.31
2023-01-03T12:18:25.395Z,94112.75
2023-01-03T12:21:07.851Z,94110.84
2023-01-03T12:23:47.847Z,94101.81
2023-01-03T12:26:17.695Z,94112.00
2023-01-03T12:28:48.323Z,94104.16
2023-01-03T12:31:32.066Z,94105.62
2023-01-03T12:34:12.339Z,94104.75
2023-01-03T12:36:53.725Z,94104.66
2023-01-03T12:39:42.537Z,94101.81
2023-01-03T12:42:51.546Z,94104.81
2023-01-03T12:45:34.581Z,94095.97
2023-01-03T12:48:17.658Z,94095.91
2023-01-03T12:50:50.265Z,94092.59
2023-01-03T12:53:46.777Z,94094.09
2023-01-03T12:56:39.658Z,94083.31
2023-01-03T12:59:36.957Z,94088.31
2023-01-03T13:02:29.025Z,94098.44
2023-01-03T13:05:16.151Z,94099.84
2023-01-03T13:07:51.592Z,94105.28
2023-01-03T13:10:23.899Z,94104.47
2023-01-03T13:12:55.332Z,94099.56
2023-01-03T13:15:37.548Z,94102.84
2023-01-03T13:18:23.575Z,94099.94
2023-01-03T13:20:53.125Z,94099.53
2023-01-03T13:23:35.979Z,94101.97
2023-01-03T13:26:06.673Z,94099.97
2023-01-03T13:28:36.349Z,94101.50
2023-01-03T13:31:19.163Z,94104.59
2023-01-03T13:33:53.859Z,94101.31
2023-01-03T13:36:22.642Z,94104.56
2023-01-03T13:38:52.305Z,94110.41
2023-01-03T13:41:37.494Z,94097.78
2023-01-03T13:44:25.391Z,94110.59
2023-01-03T13:46:52.855Z,94110.84
2023-01-03T13:49:27.004Z,94108.25
2023-01-03T13:51:57.394Z,94112.59
2023-01-03T13:54:36.874Z,94115.31
2023-01-03T13:57:07.124Z,94116.78
2023-01-03T13:59:42.843Z,94115.38
2023-01-03T14:02:10.626Z,94116.81
2023-01-03T14:05:14.349Z,94111.84
2023-01-03T14:08:03.186Z,94116.37
2023-01-03T14:10:32.956Z,94112.56
2023-01-03T14:13:28.063Z,94111.84
2023-01-03T14:16:14.446Z,94113.38
2023-01-03T14:19:05.963Z,94116.87
2023-01-03T14:22:21.137Z,94109.84
2023-01-03T14:24:52.047Z,94120.06
2023-01-03T14:27:22.344Z,94116.91
2023-01-03T14:29:53.373Z,94120.56
2023-01-03T14:32:30.416Z,94117.78
2023-01-03T14:35:03.767Z,94114.19
2023-01-03T14:37:33.360Z,94119.28
2023-01-03T14:40:06.463Z,94122.50
2023-01-03T14:42:34.403Z,94120.94
2023-01-03T14:45:05.358Z,94129.22
2023-01-03T14:47:40.747Z,94128.22
2023-01-03T14:50:30.157Z,94127.44
2023-01-03T14:52:58.939Z,94126.13
2023-01-03T14:55:30.330Z,94126.91
2023-01-03T14:57:58.545Z,94136.06
2023-01-03T15:00:33.250Z,94128.75
2023-01-03T15:03:04.845Z,94136.88
2023-01-03T15:05:41.048Z,94138.31
2023-01-03T15:08:26.529Z,94135.78
2023-01-03T15:10:59.917Z,94134.59
2023-01-03T15:13:36.741Z,94141.88
2023-01-03T15:16:07.576Z,94134.97
2023-01-03T15:18:40.076Z,94146.13
2023-01-03T15:21:07.679Z,94141.56
2023-01-03T15:23:42.390Z,94146.97
2023-01-03T15:26:24.628Z,94144.78
2023-01-03T15:29:05.530Z,94147.66
2023-01-03T15:31:37.333Z,94154.81
2023-01-03T15:34:15.465Z,94156.88
2023-01-03T15:36:46.883Z,94157.75
2023-01-03T15:39:21.437Z,94161.91
2023-01-03T15:44:56.432Z,94158.75
2023-01-03T15:47:29.854Z,94164.78
2023-01-03T15:50:00.768Z,94162.81
2023-01-03T15:52:28.417Z,94164.56
2023-01-03T15:54:55.779Z,94172.03
2023-01-03T15:57:29.983Z,94170.41
2023-01-03T16:00:02.102Z,94176.44
2023-01-03T16:02:32.562Z,94179.00
2023-01-03T16:05:00.235Z,94174.69
2023-01-03T16:07:27.983Z,94175.75
2023-01-03T16:09:55.411Z,94179.00
2023-01-03T16:12:31.768Z,94180.13
2023-01-03T16:14:59.670Z,94179.59
2023-01-03T16:17:28.796Z,94188.13
2023-01-03T16:19:58.977Z,94187.56
2023-01-03T16:22:35.697Z,94181.62
2023-01-03T16:25:04.834Z,94191.22
2023-01-03T16:27:32.602Z,94191.94
2023-01-03T16:29:59.960Z,94197.03
2023-01-03T16:32:30.009Z,94192.69
2023-01-03T16:35:03.706Z,94194.53
2023-01-03T16:37:31.121Z,94200.63
2023-01-03T16:39:59.218Z,94206.03
2023-01-03T16:42:29.378Z,94208.63
2023-01-03T16:44:57.142Z,94208.28
2023-01-03T16:47:31.239Z,94211.13
2023-01-03T16:50:02.788Z,94211.59
2023-01-03T16:52:39.263Z,94223.81
2023-01-03T16:55:18.931Z,94229.44
2023-01-03T16:57:53.593Z,94228.06
2023-01-03T17:00:24.274Z,94225.31
2023-01-03T17:02:52.321Z,94233.75
2023-01-03T17:05:19.792Z,94229.72
2023-01-03T17:07:49.291Z,94231.75
2023-01-03T17:10:35.719Z,94235.75
2023-01-03T17:13:10.444Z,94232.75
2023-01-03T17:15:41.842Z,94236.53
2023-01-03T17:18:20.062Z,94243.38
2023-01-03T17:21:00.407Z,94238.56
2023-01-03T17:23:30.458Z,94238.94
2023-01-03T17:25:58.350Z,94240.75
2023-01-03T17:28:26.168Z,94236.13
2023-01-03T17:30:56.826Z,94237.69
2023-01-03T17:33:31.993Z,94244.13
2023-01-03T17:36:01.471Z,94248.91
2023-01-03T17:38:33.204Z,94243.44
2023-01-03T17:41:01.828Z,94246.25
2023-01-03T17:43:30.248Z,94245.44
2023-01-03T17:46:23.510Z,94246.44
2023-01-03T17:49:11.777Z,94244.97
2023-01-03T17:51:39.722Z,94250.56
2023-01-03T17:54:10.088Z,94246.78
2023-01-03T17:56:37.609Z,94251.09
2023-01-03T17:59:05.326Z,94247.81
2023-01-03T18:01:34.265Z,94254.44
2023-01-03T18:04:02.554Z,94257.06
2023-01-03T18:06:30.480Z,94258.31
2023-01-03T18:09:00.018Z,94258.59
2023-01-03T18:11:27.734Z,94256.59
2023-01-03T18:13:55.678Z,94253.94
2023-01-03T18:16:24.236Z,94260.09
2023-01-03T18:18:55.653Z,94248.84
2023-01-03T18:21:27.992Z,94248.59
2023-01-03T18:24:20.443Z,94243.28
2023-01-03T18:26:52.551Z,94254.97
2023-01-03T18:29:21.806Z,94257.25
2023-01-03T18:31:50.289Z,94260.06
2023-01-03T18:34:18.173Z,94252.59
2023-01-03T18:36:51.090Z,94258.16
2023-01-03T18:39:29.805Z,94266.06
2023-01-03T18:42:17.246Z,94261.66
2023-01-03T18:44:44.685Z,94260.97
2023-01-03T18:47:13.983Z,94264.06
2023-01-03T18:49:41.602Z,94271.34
2023-01-03T18:52:32.110Z,94277.94
2023-01-03T18:55:01.363Z,94272.72
2023-01-03T18:57:29.452Z,94270.22
2023-01-03T18:59:57.727Z,94265.72
2023-01-03T19:02:26.750Z,94270.25
2023-01-03T19:04:54.337Z,94280.12
2023-01-03T19:07:32.137Z,94270.63
2023-01-03T19:10:00.931Z,94274.63
2023-01-03T19:12:31.301Z,94280.75
2023-01-03T19:14:58.591Z,94280.69
2023-01-03T19:17:26.313Z,94278.00
2023-01-03T19:19:53.580Z,94276.50
2023-01-03T19:22:29.394Z,94280.78
2023-01-03T19:25:01.991Z,94275.97
2023-01-03T19:27:38.219Z,94272.81
2023-01-03T19:30:14.541Z,94274.38
2023-01-03T19:32:42.297Z,94267.78
2023-01-03T19:35:18.312Z,94268.97
2023-01-03T19:37:45.878Z,94276.41
2023-01-03T19:40:15.535Z,94266.03
2023-01-03T19:42:47.615Z,94265.12
2023-01-03T19:45:19.854Z,94266.47
2023-01-03T19:47:47.543Z,94275.81
2023-01-03T19:50:24.646Z,94270.78
2023-01-03T19:52:53.974Z,94271.41
2023-01-03T19:55:32.543Z,94274.19
2023-01-03T19:58:10.511Z,94266.56
2023-01-03T20:00:38.278Z,94270.69
2023-01-03T20:03:15.028Z,94268.16
2023-01-03T20:05:42.618Z,94265.84
2023-01-03T20:08:12.572Z,94273.47
2023-01-03T20:10:43.607Z,94271.66
2023-01-03T20:13:20.652Z,94279.16
2023-01-03T20:15:49.323Z,94275.84
2023-01-03T20:18:25.188Z,94276.31
2023-01-03T20:20:55.398Z,94281.53
2023-01-03T20:23:23.461Z,94289.31
2023-01-03T20:25:51.772Z,94280.47
2023-01-03T20:28:29.433Z,94278.16
2023-01-03T20:30:59.527Z,94289.31
2023-01-03T20:33:28.286Z,94284.25
2023-01-03T20:36:12.551Z,94275.25
2023-01-03T20:38:46.075Z,94280.16
2023-01-03T20:41:14.904Z,94275.81
2023-01-03T20:43:44.217Z,94281.97
2023-01-03T20:46:18.360Z,94280.75
2023-01-03T20:48:55.608Z,94287.53
2023-01-03T20:51:24.619Z,94282.59
2023-01-03T20:53:55.080Z,94287.63
2023-01-03T20:56:24.067Z,94284.72
2023-01-03T20:58:51.923Z,94278.78
2023-01-03T21:01:19.440Z,94280.72
2023-01-03T21:03:47.071Z,94283.78
2023-01-03T21:06:23.455Z,94285.31
2023-01-03T21:08:54.392Z,94285.91
2023-01-03T21:11:28.088Z,94287.41
2023-01-03T21:13:57.015Z,94286.75
2023-01-03T21:16:36.931Z,94289.81
2023-01-03T21:19:11.927Z,94290.00
2023-01-03T21:21:41.089Z,94292.25
2023-01-03T21:24:10.855Z,94294.16
2023-01-03T21:26:38.278Z,94293.09
2023-01-03T21:29:06.491Z,94291.19
2023-01-03T21:31:35.065Z,94290.88
2023-01-03T21:34:05.350Z,94294.94
2023-01-03T21:36:35.361Z,94301.38
2023-01-03T21:39:04.107Z,94295.19
2023-01-03T21:41:34.610Z,94300.69
2023-01-03T21:44:04.130Z,94294.47
2023-01-03T21:46:31.619Z,94300.41
2023-01-03T21:48:59.184Z,94296.66
2023-01-03T21:51:38.026Z,94296.31
2023-01-03T21:54:07.823Z,94299.56
2023-01-03T21:56:44.704Z,94301.19
2023-01-03T21:59:16.805Z,94304.06
2023-01-03T22:02:06.889Z,94305.38
2023-01-03T22:04:34.992Z,94306.06
2023-01-03T22:07:02.563Z,94307.66
2023-01-03T22:09:49.648Z,94307.78
2023-01-03T22:12:18.686Z,94308.81
2023-01-03T22:14:46.761Z,94302.25
2023-01-03T22:17:14.911Z,94295.91
2023-01-03T22:19:42.528Z,94300.31
2023-01-03T22:22:10.451Z,94295.97
2023-01-03T22:24:37.746Z,94292.16
2023-01-03T22:27:05.601Z,94292.00
2023-01-03T22:29:32.933Z,94295.41
2023-01-03T22:32:00.297Z,94294.31
2023-01-03T22:34:28.055Z,94292.87
2023-01-03T22:36:55.332Z,94293.84
2023-01-03T22:39:22.571Z,94298.19
2023-01-03T22:41:50.222Z,94287.41
2023-01-03T22:44:17.520Z,94293.34
2023-01-03T22:46:44.769Z,94294.50
2023-01-03T22:49:12.433Z,94288.97
2023-01-03T22:51:39.927Z,94278.34
2023-01-03T22:54:07.464Z,94280.97
2023-01-03T22:56:35.146Z,94280.47
2023-01-03T22:59:02.625Z,94280.62
2023-01-03T23:01:30.330Z,94279.66
2023-01-03T23:04:03.850Z,94275.56
2023-01-03T23:06:32.436Z,94268.13
2023-01-03T23:09:01.474Z,94273.47
2023-01-03T23:11:49.790Z,94270.41
2023-01-03T23:14:22.683Z,94269.78
2023-01-03T23:16:51.495Z,94271.84
2023-01-03T23:19:23.857Z,94276.22
2023-01-03T23:21:53.126Z,94267.69
2023-01-03T23:24:25.313Z,94269.91
2023-01-03T23:26:53.671Z,94260.09
2023-01-03T23:29:21.992Z,94263.47
2023-01-03T23:31:49.424Z,94264.13
2023-01-03T23:34:16.642Z,94260.91
2023-01-03T23:36:44.614Z,94266.38
2023-01-03T23:39:17.461Z,94267.06
2023-01-03T23:41:46.058Z,94260.59
2023-01-03T23:44:13.605Z,94260.75
2023-01-03T23:46:41.596Z,94259.66
2023-01-03T23:49:11.597Z,94257.72
2023-01-03T23:51:38.963Z,94250.81
2023-01-03T23:54:06.247Z,94255.81
2023-01-03T23:56:34.027Z,94249.34
2023-01-03T23:59:01.281Z,94249.50
